sensor_id;sensor_type;location;lat;lon;timestamp;pressure;altitude;pressure_sealevel;temperature;humidity
72585;BME280;60618;40.084;32.908;2023-07-24T00:01:55;89526.78;;;21.58;52.14
72585;BME280;60618;40.084;32.908;2023-07-24T00:04:22;89522.59;;;21.41;52.58
72585;BME280;60618;40.084;32.908;2023-07-24T00:06:49;89525.97;;;21.27;53.12
72585;BME280;60618;40.084;32.908;2023-07-24T00:09:18;89517.06;;;21.18;53.54
72585;BME280;60618;40.084;32.908;2023-07-24T00:11:45;89508.91;;;21.11;54.10
72585;BME280;60618;40.084;32.908;2023-07-24T00:14:16;89503.28;;;21.01;54.57
72585;BME280;60618;40.084;32.908;2023-07-24T00:16:43;89509.97;;;21.00;54.84
72585;BME280;60618;40.084;32.908;2023-07-24T00:19:10;89504.88;;;20.89;55.29
72585;BME280;60618;40.084;32.908;2023-07-24T00:21:38;89502.66;;;20.80;55.75
72585;BME280;60618;40.084;32.908;2023-07-24T00:24:05;89489.69;;;20.78;55.80
72585;BME280;60618;40.084;32.908;2023-07-24T00:26:32;89494.69;;;20.74;56.19
72585;BME280;60618;40.084;32.908;2023-07-24T00:29:00;89490.03;;;20.82;56.00
72585;BME280;60618;40.084;32.908;2023-07-24T00:31:27;89480.97;;;20.72;56.49
72585;BME280;60618;40.084;32.908;2023-07-24T00:33:54;89479.50;;;20.63;57.03
72585;BME280;60618;40.084;32.908;2023-07-24T00:36:22;89482.75;;;20.62;57.14
72585;BME280;60618;40.084;32.908;2023-07-24T00:38:49;89472.28;;;20.58;57.49
72585;BME280;60618;40.084;32.908;2023-07-24T00:41:16;89483.28;;;20.60;58.02
72585;BME280;60618;40.084;32.908;2023-07-24T00:43:43;89484.16;;;20.55;57.88
72585;BME280;60618;40.084;32.908;2023-07-24T00:46:11;89491.72;;;20.49;57.88
72585;BME280;60618;40.084;32.908;2023-07-24T00:48:39;89490.59;;;20.45;58.21
72585;BME280;60618;40.084;32.908;2023-07-24T00:51:06;89495.94;;;20.37;58.88
72585;BME280;60618;40.084;32.908;2023-07-24T00:53:36;89503.47;;;20.31;58.92
72585;BME280;60618;40.084;32.908;2023-07-24T00:56:04;89488.72;;;20.32;59.00
72585;BME280;60618;40.084;32.908;2023-07-24T00:58:33;89485.78;;;20.30;59.15
72585;BME280;60618;40.084;32.908;2023-07-24T01:01:00;89487.25;;;20.31;59.02
72585;BME280;60618;40.084;32.908;2023-07-24T01:03:33;89483.31;;;20.32;58.86
72585;BME280;60618;40.084;32.908;2023-07-24T01:06:02;89485.28;;;20.31;58.77
72585;BME280;60618;40.084;32.908;2023-07-24T01:08:29;89484.75;;;20.33;58.68
72585;BME280;60618;40.084;32.908;2023-07-24T01:11:01;89491.41;;;20.32;58.68
72585;BME280;60618;40.084;32.908;2023-07-24T01:13:32;89489.44;;;20.32;58.69
72585;BME280;60618;40.084;32.908;2023-07-24T01:16:09;89480.44;;;20.37;58.37
72585;BME280;60618;40.084;32.908;2023-07-24T01:18:41;89488.00;;;20.39;58.35
72585;BME280;60618;40.084;32.908;2023-07-24T01:21:11;89493.78;;;20.35;58.55
72585;BME280;60618;40.084;32.908;2023-07-24T01:26:41;89500.38;;;20.27;58.73
72585;BME280;60618;40.084;32.908;2023-07-24T01:29:08;89497.69;;;20.27;58.59
72585;BME280;60618;40.084;32.908;2023-07-24T01:31:35;89500.56;;;20.29;58.09
72585;BME280;60618;40.084;32.908;2023-07-24T01:34:02;89513.38;;;20.28;58.46
72585;BME280;60618;40.084;32.908;2023-07-24T01:36:30;89521.34;;;20.34;58.07
72585;BME280;60618;40.084;32.908;2023-07-24T01:38:58;89520.03;;;20.27;58.20
72585;BME280;60618;40.084;32.908;2023-07-24T01:41:26;89523.28;;;20.26;58.15
72585;BME280;60618;40.084;32.908;2023-07-24T01:43:54;89521.25;;;20.19;58.54
72585;BME280;60618;40.084;32.908;2023-07-24T01:46:21;89515.25;;;20.12;58.40
72585;BME280;60618;40.084;32.908;2023-07-24T01:48:48;89517.44;;;20.14;58.51
72585;BME280;60618;40.084;32.908;2023-07-24T01:51:15;89516.50;;;20.11;58.52
72585;BME280;60618;40.084;32.908;2023-07-24T01:53:42;89523.66;;;20.01;58.88
72585;BME280;60618;40.084;32.908;2023-07-24T01:56:10;89523.03;;;19.88;59.21
72585;BME280;60618;40.084;32.908;2023-07-24T01:58:38;89534.16;;;19.84;59.55
72585;BME280;60618;40.084;32.908;2023-07-24T02:01:05;89538.84;;;19.83;59.51
72585;BME280;60618;40.084;32.908;2023-07-24T02:03:32;89523.34;;;19.84;59.41
72585;BME280;60618;40.084;32.908;2023-07-24T02:05:59;89535.66;;;19.93;59.33
72585;BME280;60618;40.084;32.908;2023-07-24T02:08:27;89536.72;;;19.90;59.40
72585;BME280;60618;40.084;32.908;2023-07-24T02:10:54;89532.69;;;19.83;59.39
72585;BME280;60618;40.084;32.908;2023-07-24T02:13:21;89537.78;;;19.87;59.36
72585;BME280;60618;40.084;32.908;2023-07-24T02:15:51;89540.16;;;19.90;59.21
72585;BME280;60618;40.084;32.908;2023-07-24T02:18:18;89550.16;;;19.82;59.73
72585;BME280;60618;40.084;32.908;2023-07-24T02:20:49;89559.09;;;19.69;60.25
72585;BME280;60618;40.084;32.908;2023-07-24T02:23:17;89553.59;;;19.62;60.59
72585;BME280;60618;40.084;32.908;2023-07-24T02:25:44;89555.91;;;19.58;60.81
72585;BME280;60618;40.084;32.908;2023-07-24T02:28:12;89547.31;;;19.67;60.32
72585;BME280;60618;40.084;32.908;2023-07-24T02:30:39;89548.63;;;19.52;60.93
72585;BME280;60618;40.084;32.908;2023-07-24T02:33:07;89542.00;;;19.40;61.38
72585;BME280;60618;40.084;32.908;2023-07-24T02:35:39;89548.56;;;19.45;61.01
72585;BME280;60618;40.084;32.908;2023-07-24T02:38:07;89561.28;;;19.58;60.41
72585;BME280;60618;40.084;32.908;2023-07-24T02:40:35;89554.13;;;19.60;60.70
72585;BME280;60618;40.084;32.908;2023-07-24T02:43:03;89559.72;;;19.62;60.43
72585;BME280;60618;40.084;32.908;2023-07-24T02:45:34;89550.56;;;19.65;60.46
72585;BME280;60618;40.084;32.908;2023-07-24T02:48:01;89544.69;;;19.74;60.17
72585;BME280;60618;40.084;32.908;2023-07-24T02:50:28;89537.66;;;19.71;60.25
72585;BME280;60618;40.084;32.908;2023-07-24T02:52:56;89534.22;;;19.71;60.30
72585;BME280;60618;40.084;32.908;2023-07-24T02:55:23;89525.47;;;19.78;59.88
72585;BME280;60618;40.084;32.908;2023-07-24T02:57:51;89510.41;;;19.90;59.27
72585;BME280;60618;40.084;32.908;2023-07-24T03:00:18;89512.06;;;19.93;59.39
72585;BME280;60618;40.084;32.908;2023-07-24T03:02:46;89496.06;;;20.03;58.85
72585;BME280;60618;40.084;32.908;2023-07-24T03:05:13;89499.72;;;20.05;58.43
72585;BME280;60618;40.084;32.908;2023-07-24T03:07:40;89501.50;;;20.03;58.27
72585;BME280;60618;40.084;32.908;2023-07-24T03:10:08;89512.66;;;19.99;58.32
72585;BME280;60618;40.084;32.908;2023-07-24T03:12:35;89502.78;;;19.81;59.07
72585;BME280;60618;40.084;32.908;2023-07-24T03:15:02;89501.28;;;19.72;59.51
72585;BME280;60618;40.084;32.908;2023-07-24T03:17:29;89503.78;;;19.70;59.81
72585;BME280;60618;40.084;32.908;2023-07-24T03:19:57;89491.47;;;19.62;60.08
72585;BME280;60618;40.084;32.908;2023-07-24T03:22:24;89491.19;;;19.73;59.75
72585;BME280;60618;40.084;32.908;2023-07-24T03:24:51;89494.84;;;19.83;59.24
72585;BME280;60618;40.084;32.908;2023-07-24T03:27:20;89490.66;;;20.03;58.58
72585;BME280;60618;40.084;32.908;2023-07-24T03:29:47;89501.34;;;20.08;58.52
72585;BME280;60618;40.084;32.908;2023-07-24T03:32:14;89507.66;;;20.11;58.23
72585;BME280;60618;40.084;32.908;2023-07-24T03:34:41;89519.69;;;20.02;58.66
72585;BME280;60618;40.084;32.908;2023-07-24T03:37:09;89522.38;;;20.02;58.49
72585;BME280;60618;40.084;32.908;2023-07-24T03:39:36;89521.81;;;19.96;58.60
72585;BME280;60618;40.084;32.908;2023-07-24T03:42:04;89527.81;;;20.02;58.38
72585;BME280;60618;40.084;32.908;2023-07-24T03:44:31;89531.56;;;19.99;58.24
72585;BME280;60618;40.084;32.908;2023-07-24T03:46:58;89527.81;;;20.02;58.26
72585;BME280;60618;40.084;32.908;2023-07-24T03:49:26;89530.44;;;20.16;58.29
72585;BME280;60618;40.084;32.908;2023-07-24T03:51:53;89531.22;;;20.24;57.83
72585;BME280;60618;40.084;32.908;2023-07-24T03:54:21;89539.09;;;20.42;57.97
72585;BME280;60618;40.084;32.908;2023-07-24T03:56:48;89546.19;;;20.53;57.48
72585;BME280;60618;40.084;32.908;2023-07-24T03:59:15;89544.28;;;20.61;57.56
72585;BME280;60618;40.084;32.908;2023-07-24T04:01:42;89550.31;;;20.83;57.05
72585;BME280;60618;40.084;32.908;2023-07-24T04:04:10;89548.94;;;20.97;56.21
72585;BME280;60618;40.084;32.908;2023-07-24T04:06:37;89541.03;;;21.07;55.77
72585;BME280;60618;40.084;32.908;2023-07-24T04:09:04;89539.94;;;21.02;55.38
72585;BME280;60618;40.084;32.908;2023-07-24T04:11:31;89528.97;;;21.15;55.07
72585;BME280;60618;40.084;32.908;2023-07-24T04:13:59;89525.09;;;21.32;54.85
72585;BME280;60618;40.084;32.908;2023-07-24T04:16:26;89524.06;;;21.50;54.06
72585;BME280;60618;40.084;32.908;2023-07-24T04:18:55;89545.88;;;21.44;53.76
72585;BME280;60618;40.084;32.908;2023-07-24T04:21:22;89552.13;;;21.24;54.51
72585;BME280;60618;40.084;32.908;2023-07-24T04:23:50;89548.03;;;21.38;54.29
72585;BME280;60618;40.084;32.908;2023-07-24T04:26:18;89540.81;;;21.41;54.38
72585;BME280;60618;40.084;32.908;2023-07-24T04:28:45;89553.63;;;21.33;54.27
72585;BME280;60618;40.084;32.908;2023-07-24T04:31:12;89549.50;;;21.39;54.14
72585;BME280;60618;40.084;32.908;2023-07-24T04:33:39;89558.38;;;21.55;53.77
72585;BME280;60618;40.084;32.908;2023-07-24T04:36:07;89550.63;;;21.59;53.38
72585;BME280;60618;40.084;32.908;2023-07-24T04:38:34;89546.25;;;21.56;53.33
72585;BME280;60618;40.084;32.908;2023-07-24T04:41:01;89562.66;;;21.35;53.66
72585;BME280;60618;40.084;32.908;2023-07-24T04:43:29;89554.84;;;21.24;54.01
72585;BME280;60618;40.084;32.908;2023-07-24T04:45:56;89551.81;;;21.35;53.44
72585;BME280;60618;40.084;32.908;2023-07-24T04:48:24;89550.41;;;21.42;53.66
72585;BME280;60618;40.084;32.908;2023-07-24T04:50:56;89558.94;;;21.61;52.98
72585;BME280;60618;40.084;32.908;2023-07-24T04:53:23;89546.13;;;21.69;52.77
72585;BME280;60618;40.084;32.908;2023-07-24T04:55:56;89571.19;;;21.47;53.11
72585;BME280;60618;40.084;32.908;2023-07-24T04:58:24;89570.47;;;21.39;53.77
72585;BME280;60618;40.084;32.908;2023-07-24T05:00:54;89563.03;;;21.32;53.83
72585;BME280;60618;40.084;32.908;2023-07-24T05:03:23;89558.56;;;21.57;53.75
72585;BME280;60618;40.084;32.908;2023-07-24T05:05:54;89558.97;;;21.69;53.06
72585;BME280;60618;40.084;32.908;2023-07-24T05:08:23;89569.81;;;21.76;53.02
72585;BME280;60618;40.084;32.908;2023-07-24T05:10:57;89558.78;;;21.74;52.97
72585;BME280;60618;40.084;32.908;2023-07-24T05:13:26;89557.38;;;21.96;52.74
72585;BME280;60618;40.084;32.908;2023-07-24T05:15:54;89556.09;;;21.90;52.46
72585;BME280;60618;40.084;32.908;2023-07-24T05:18:21;89560.78;;;21.89;52.50
72585;BME280;60618;40.084;32.908;2023-07-24T05:20:49;89568.03;;;21.87;52.91
72585;BME280;60618;40.084;32.908;2023-07-24T05:23:16;89566.22;;;21.89;52.90
72585;BME280;60618;40.084;32.908;2023-07-24T05:25:43;89561.53;;;22.05;52.47
72585;BME280;60618;40.084;32.908;2023-07-24T05:28:12;89551.44;;;22.21;51.69
72585;BME280;60618;40.084;32.908;2023-07-24T05:30:39;89572.41;;;22.28;51.96
72585;BME280;60618;40.084;32.908;2023-07-24T05:33:06;89564.63;;;22.40;51.65
72585;BME280;60618;40.084;32.908;2023-07-24T05:35:34;89570.94;;;22.65;50.78
72585;BME280;60618;40.084;32.908;2023-07-24T05:38:01;89570.19;;;22.80;50.61
72585;BME280;60618;40.084;32.908;2023-07-24T05:40:28;89568.00;;;22.93;50.68
72585;BME280;60618;40.084;32.908;2023-07-24T05:42:56;89570.72;;;22.93;50.71
72585;BME280;60618;40.084;32.908;2023-07-24T05:45:24;89561.50;;;22.89;49.78
72585;BME280;60618;40.084;32.908;2023-07-24T05:47:51;89556.06;;;22.89;50.22
72585;BME280;60618;40.084;32.908;2023-07-24T05:50:19;89560.97;;;22.67;50.64
72585;BME280;60618;40.084;32.908;2023-07-24T05:52:46;89560.03;;;22.80;50.40
72585;BME280;60618;40.084;32.908;2023-07-24T05:55:13;89556.03;;;22.97;50.83
72585;BME280;60618;40.084;32.908;2023-07-24T05:57:41;89551.59;;;23.24;49.72
72585;BME280;60618;40.084;32.908;2023-07-24T06:00:08;89548.72;;;23.22;49.50
72585;BME280;60618;40.084;32.908;2023-07-24T06:02:35;89544.06;;;23.47;48.54
72585;BME280;60618;40.084;32.908;2023-07-24T06:05:06;89550.94;;;23.89;48.11
72585;BME280;60618;40.084;32.908;2023-07-24T06:07:33;89545.84;;;24.18;47.07
72585;BME280;60618;40.084;32.908;2023-07-24T06:10:00;89549.13;;;24.41;46.76
72585;BME280;60618;40.084;32.908;2023-07-24T06:12:28;89548.50;;;24.25;44.75
72585;BME280;60618;40.084;32.908;2023-07-24T06:14:55;89557.66;;;23.88;45.20
72585;BME280;60618;40.084;32.908;2023-07-24T06:17:22;89545.63;;;23.66;46.63
72585;BME280;60618;40.084;32.908;2023-07-24T06:19:50;89553.09;;;23.58;46.72
72585;BME280;60618;40.084;32.908;2023-07-24T06:22:18;89538.75;;;23.65;47.56
72585;BME280;60618;40.084;32.908;2023-07-24T06:24:45;89548.91;;;23.64;47.73
72585;BME280;60618;40.084;32.908;2023-07-24T06:27:13;89561.94;;;23.98;46.32
72585;BME280;60618;40.084;32.908;2023-07-24T06:29:40;89554.34;;;24.22;45.94
72585;BME280;60618;40.084;32.908;2023-07-24T06:32:21;89551.91;;;24.33;45.63
72585;BME280;60618;40.084;32.908;2023-07-24T06:34:58;89563.56;;;24.51;44.83
72585;BME280;60618;40.084;32.908;2023-07-24T06:37:29;89551.63;;;24.47;44.95
72585;BME280;60618;40.084;32.908;2023-07-24T06:39:56;89550.69;;;24.69;44.78
72585;BME280;60618;40.084;32.908;2023-07-24T06:42:23;89558.00;;;24.84;43.44
72585;BME280;60618;40.084;32.908;2023-07-24T06:44:51;89557.69;;;24.97;43.48
72585;BME280;60618;40.084;32.908;2023-07-24T06:47:18;89568.41;;;24.95;43.15
72585;BME280;60618;40.084;32.908;2023-07-24T06:49:45;89556.75;;;25.19;43.36
72585;BME280;60618;40.084;32.908;2023-07-24T06:52:13;89557.38;;;25.28;41.91
72585;BME280;60618;40.084;32.908;2023-07-24T06:54:40;89555.31;;;25.36;42.00
72585;BME280;60618;40.084;32.908;2023-07-24T06:57:07;89554.66;;;25.45;41.32
72585;BME280;60618;40.084;32.908;2023-07-24T06:59:34;89554.75;;;25.03;41.78
72585;BME280;60618;40.084;32.908;2023-07-24T07:02:01;89549.50;;;25.32;40.88
72585;BME280;60618;40.084;32.908;2023-07-24T07:04:28;89554.84;;;25.57;40.32
72585;BME280;60618;40.084;32.908;2023-07-24T07:06:58;89551.03;;;25.87;40.37
72585;BME280;60618;40.084;32.908;2023-07-24T07:09:26;89549.94;;;26.26;39.55
72585;BME280;60618;40.084;32.908;2023-07-24T07:11:53;89544.91;;;25.96;39.11
72585;BME280;60618;40.084;32.908;2023-07-24T07:14:20;89547.44;;;25.84;39.65
72585;BME280;60618;40.084;32.908;2023-07-24T07:16:48;89545.47;;;25.94;40.03
72585;BME280;60618;40.084;32.908;2023-07-24T07:19:15;89550.97;;;26.04;39.87
72585;BME280;60618;40.084;32.908;2023-07-24T07:21:42;89547.88;;;26.17;39.13
72585;BME280;60618;40.084;32.908;2023-07-24T07:24:10;89542.91;;;26.33;38.90
72585;BME280;60618;40.084;32.908;2023-07-24T07:26:37;89539.38;;;26.50;38.69
72585;BME280;60618;40.084;32.908;2023-07-24T07:29:04;89543.50;;;26.04;39.11
72585;BME280;60618;40.084;32.908;2023-07-24T07:31:31;89538.00;;;26.31;39.87
72585;BME280;60618;40.084;32.908;2023-07-24T07:33:58;89548.97;;;26.41;39.51
72585;BME280;60618;40.084;32.908;2023-07-24T07:36:25;89533.66;;;26.65;38.62
72585;BME280;60618;40.084;32.908;2023-07-24T07:38:54;89529.34;;;26.62;38.42
72585;BME280;60618;40.084;32.908;2023-07-24T07:41:21;89525.22;;;26.80;38.56
72585;BME280;60618;40.084;32.908;2023-07-24T07:43:48;89532.69;;;26.80;37.90
72585;BME280;60618;40.084;32.908;2023-07-24T07:46:16;89530.13;;;27.01;38.57
72585;BME280;60618;40.084;32.908;2023-07-24T07:48:46;89526.13;;;27.22;38.07
72585;BME280;60618;40.084;32.908;2023-07-24T07:51:13;89528.56;;;27.37;37.28
72585;BME280;60618;40.084;32.908;2023-07-24T07:53:41;89527.84;;;27.27;37.09
72585;BME280;60618;40.084;32.908;2023-07-24T07:56:08;89522.81;;;27.23;36.42
72585;BME280;60618;40.084;32.908;2023-07-24T07:58:35;89522.63;;;27.60;37.08
72585;BME280;60618;40.084;32.908;2023-07-24T08:01:04;89536.78;;;27.08;36.18
72585;BME280;60618;40.084;32.908;2023-07-24T08:03:31;89531.25;;;26.88;37.30
72585;BME280;60618;40.084;32.908;2023-07-24T08:05:59;89524.06;;;26.83;36.87
72585;BME280;60618;40.084;32.908;2023-07-24T08:08:26;89529.84;;;26.97;37.68
72585;BME280;60618;40.084;32.908;2023-07-24T08:10:53;89534.41;;;26.75;37.40
72585;BME280;60618;40.084;32.908;2023-07-24T08:13:21;89531.56;;;26.37;38.64
72585;BME280;60618;40.084;32.908;2023-07-24T08:15:51;89521.06;;;26.33;38.12
72585;BME280;60618;40.084;32.908;2023-07-24T08:18:18;89516.13;;;26.22;39.14
72585;BME280;60618;40.084;32.908;2023-07-24T08:20:45;89529.13;;;26.04;38.85
72585;BME280;60618;40.084;32.908;2023-07-24T08:23:13;89511.16;;;26.01;38.99
72585;BME280;60618;40.084;32.908;2023-07-24T08:25:40;89515.13;;;26.17;38.68
72585;BME280;60618;40.084;32.908;2023-07-24T08:28:07;89531.56;;;26.00;39.42
72585;BME280;60618;40.084;32.908;2023-07-24T08:30:34;89513.47;;;26.04;39.52
72585;BME280;60618;40.084;32.908;2023-07-24T08:33:01;89507.16;;;26.39;38.40
72585;BME280;60618;40.084;32.908;2023-07-24T08:35:29;89508.63;;;26.59;37.01
72585;BME280;60618;40.084;32.908;2023-07-24T08:37:57;89508.69;;;26.78;36.86
72585;BME280;60618;40.084;32.908;2023-07-24T08:40:24;89514.56;;;26.84;35.40
72585;BME280;60618;40.084;32.908;2023-07-24T08:42:51;89504.97;;;27.03;35.69
72585;BME280;60618;40.084;32.908;2023-07-24T08:45:20;89495.16;;;27.38;35.30
72585;BME280;60618;40.084;32.908;2023-07-24T08:47:48;89494.16;;;28.04;34.39
72585;BME280;60618;40.084;32.908;2023-07-24T08:50:17;89502.34;;;28.13;33.66
72585;BME280;60618;40.084;32.908;2023-07-24T08:52:45;89492.91;;;27.95;32.83
72585;BME280;60618;40.084;32.908;2023-07-24T08:55:12;89487.34;;;28.14;33.39
72585;BME280;60618;40.084;32.908;2023-07-24T08:57:39;89491.69;;;28.08;32.63
72585;BME280;60618;40.084;32.908;2023-07-24T09:00:07;89483.34;;;28.06;32.77
72585;BME280;60618;40.084;32.908;2023-07-24T09:02:35;89482.53;;;28.34;31.17
72585;BME280;60618;40.084;32.908;2023-07-24T09:05:03;89481.31;;;28.68;32.27
72585;BME280;60618;40.084;32.908;2023-07-24T09:07:33;89478.59;;;28.90;32.19
72585;BME280;60618;40.084;32.908;2023-07-24T09:10:00;89476.69;;;28.49;32.07
72585;BME280;60618;40.084;32.908;2023-07-24T09:12:28;89483.66;;;28.62;30.31
72585;BME280;60618;40.084;32.908;2023-07-24T09:15:05;89481.94;;;28.57;31.15
72585;BME280;60618;40.084;32.908;2023-07-24T09:17:33;89466.50;;;28.62;31.02
72585;BME280;60618;40.084;32.908;2023-07-24T09:20:02;89477.50;;;29.04;30.80
72585;BME280;60618;40.084;32.908;2023-07-24T09:22:29;89465.97;;;28.75;27.42
72585;BME280;60618;40.084;32.908;2023-07-24T09:24:57;89465.72;;;28.49;26.66
72585;BME280;60618;40.084;32.908;2023-07-24T09:27:27;89467.81;;;27.98;26.70
72585;BME280;60618;40.084;32.908;2023-07-24T09:29:57;89471.91;;;27.78;27.60
72585;BME280;60618;40.084;32.908;2023-07-24T09:32:26;89458.91;;;28.29;28.12
72585;BME280;60618;40.084;32.908;2023-07-24T09:34:54;89452.84;;;28.73;26.11
72585;BME280;60618;40.084;32.908;2023-07-24T09:37:30;89465.84;;;28.73;25.21
72585;BME280;60618;40.084;32.908;2023-07-24T09:39:58;89447.19;;;28.60;26.73
72585;BME280;60618;40.084;32.908;2023-07-24T09:42:33;89460.50;;;28.53;27.53
72585;BME280;60618;40.084;32.908;2023-07-24T09:45:10;89454.50;;;28.88;28.03
72585;BME280;60618;40.084;32.908;2023-07-24T09:47:39;89455.66;;;28.42;28.69
72585;BME280;60618;40.084;32.908;2023-07-24T09:50:09;89444.50;;;28.19;29.44
72585;BME280;60618;40.084;32.908;2023-07-24T09:52:40;89446.91;;;28.55;28.50
72585;BME280;60618;40.084;32.908;2023-07-24T09:55:25;89462.16;;;28.90;28.76
72585;BME280;60618;40.084;32.908;2023-07-24T09:57:56;89440.59;;;28.96;28.69
72585;BME280;60618;40.084;32.908;2023-07-24T10:00:24;89438.81;;;28.58;29.88
72585;BME280;60618;40.084;32.908;2023-07-24T10:02:51;89431.13;;;28.66;30.43
72585;BME280;60618;40.084;32.908;2023-07-24T10:05:18;89445.81;;;28.70;30.89
72585;BME280;60618;40.084;32.908;2023-07-24T10:07:47;89447.38;;;28.21;30.84
72585;BME280;60618;40.084;32.908;2023-07-24T10:10:14;89433.72;;;28.11;31.13
72585;BME280;60618;40.084;32.908;2023-07-24T10:12:42;89433.44;;;27.76;31.17
72585;BME280;60618;40.084;32.908;2023-07-24T10:15:10;89439.97;;;27.71;31.59
72585;BME280;60618;40.084;32.908;2023-07-24T10:17:41;89428.25;;;28.11;30.64
72585;BME280;60618;40.084;32.908;2023-07-24T10:20:10;89434.00;;;28.89;29.47
72585;BME280;60618;40.084;32.908;2023-07-24T10:22:42;89429.63;;;29.29;30.06
72585;BME280;60618;40.084;32.908;2023-07-24T10:25:10;89416.38;;;28.92;29.63
72585;BME280;60618;40.084;32.908;2023-07-24T10:27:44;89444.91;;;28.77;29.38
72585;BME280;60618;40.084;32.908;2023-07-24T10:30:12;89432.03;;;29.01;29.44
72585;BME280;60618;40.084;32.908;2023-07-24T10:33:18;89425.25;;;29.47;28.76
72585;BME280;60618;40.084;32.908;2023-07-24T10:35:54;89422.47;;;29.80;28.04
72585;BME280;60618;40.084;32.908;2023-07-24T10:38:33;89421.78;;;29.35;29.25
72585;BME280;60618;40.084;32.908;2023-07-24T10:41:06;89423.91;;;29.25;28.39
72585;BME280;60618;40.084;32.908;2023-07-24T10:43:43;89418.94;;;28.78;29.71
72585;BME280;60618;40.084;32.908;2023-07-24T10:46:15;89409.53;;;28.60;29.71
72585;BME280;60618;40.084;32.908;2023-07-24T10:48:44;89425.75;;;28.25;30.28
72585;BME280;60618;40.084;32.908;2023-07-24T10:51:11;89413.22;;;27.91;31.23
72585;BME280;60618;40.084;32.908;2023-07-24T10:53:38;89416.81;;;27.93;31.16
72585;BME280;60618;40.084;32.908;2023-07-24T10:56:07;89410.44;;;28.00;30.35
72585;BME280;60618;40.084;32.908;2023-07-24T10:58:34;89410.25;;;28.39;29.86
72585;BME280;60618;40.084;32.908;2023-07-24T11:01:05;89402.53;;;28.90;29.71
72585;BME280;60618;40.084;32.908;2023-07-24T11:03:35;89405.81;;;29.43;28.78
72585;BME280;60618;40.084;32.908;2023-07-24T11:06:03;89401.66;;;29.09;28.71
72585;BME280;60618;40.084;32.908;2023-07-24T11:08:30;89404.13;;;28.50;29.31
72585;BME280;60618;40.084;32.908;2023-07-24T11:10:58;89390.19;;;28.79;29.67
72585;BME280;60618;40.084;32.908;2023-07-24T11:13:27;89396.06;;;29.63;28.36
72585;BME280;60618;40.084;32.908;2023-07-24T11:15:55;89396.59;;;29.95;27.44
72585;BME280;60618;40.084;32.908;2023-07-24T11:18:22;89387.59;;;29.59;28.66
72585;BME280;60618;40.084;32.908;2023-07-24T11:20:54;89390.78;;;29.44;28.98
72585;BME280;60618;40.084;32.908;2023-07-24T11:23:22;89390.19;;;29.01;29.38
72585;BME280;60618;40.084;32.908;2023-07-24T11:25:51;89402.66;;;28.92;29.46
72585;BME280;60618;40.084;32.908;2023-07-24T11:28:19;89395.22;;;29.04;29.04
72585;BME280;60618;40.084;32.908;2023-07-24T11:30:46;89394.84;;;29.43;28.63
72585;BME280;60618;40.084;32.908;2023-07-24T11:33:15;89385.59;;;29.72;28.19
72585;BME280;60618;40.084;32.908;2023-07-24T11:35:45;89381.94;;;29.34;27.88
72585;BME280;60618;40.084;32.908;2023-07-24T11:38:13;89385.09;;;29.19;27.73
72585;BME280;60618;40.084;32.908;2023-07-24T11:40:42;89372.66;;;29.39;28.11
72585;BME280;60618;40.084;32.908;2023-07-24T11:43:19;89383.56;;;29.84;27.73
72585;BME280;60618;40.084;32.908;2023-07-24T11:45:48;89388.34;;;29.72;27.04
72585;BME280;60618;40.084;32.908;2023-07-24T11:48:16;89376.03;;;29.49;27.10
72585;BME280;60618;40.084;32.908;2023-07-24T11:50:48;89369.91;;;29.39;26.90
72585;BME280;60618;40.084;32.908;2023-07-24T11:53:27;89373.63;;;29.55;27.31
72585;BME280;60618;40.084;32.908;2023-07-24T11:55:57;89370.31;;;29.68;27.18
72585;BME280;60618;40.084;32.908;2023-07-24T11:58:26;89365.41;;;29.79;26.71
72585;BME280;60618;40.084;32.908;2023-07-24T12:00:53;89373.66;;;29.79;27.04
72585;BME280;60618;40.084;32.908;2023-07-24T12:03:22;89364.53;;;29.41;27.65
72585;BME280;60618;40.084;32.908;2023-07-24T12:05:49;89363.31;;;29.21;27.09
72585;BME280;60618;40.084;32.908;2023-07-24T12:08:19;89371.84;;;29.03;27.45
72585;BME280;60618;40.084;32.908;2023-07-24T12:10:46;89365.66;;;29.15;27.05
72585;BME280;60618;40.084;32.908;2023-07-24T12:13:14;89348.84;;;29.20;26.75
72585;BME280;60618;40.084;32.908;2023-07-24T12:15:41;89351.47;;;29.18;26.96
72585;BME280;60618;40.084;32.908;2023-07-24T12:18:08;89353.56;;;29.41;26.42
72585;BME280;60618;40.084;32.908;2023-07-24T12:20:35;89345.22;;;29.51;26.39
72585;BME280;60618;40.084;32.908;2023-07-24T12:23:02;89359.09;;;29.76;25.46
72585;BME280;60618;40.084;32.908;2023-07-24T12:25:30;89353.13;;;30.03;25.50
72585;BME280;60618;40.084;32.908;2023-07-24T12:27:57;89349.88;;;29.48;27.17
72585;BME280;60618;40.084;32.908;2023-07-24T12:30:24;89338.72;;;29.23;28.25
72585;BME280;60618;40.084;32.908;2023-07-24T12:32:51;89356.13;;;29.16;27.70
72585;BME280;60618;40.084;32.908;2023-07-24T12:35:19;89345.13;;;29.04;28.15
72585;BME280;60618;40.084;32.908;2023-07-24T12:37:46;89341.38;;;29.44;27.14
72585;BME280;60618;40.084;32.908;2023-07-24T12:40:13;89346.84;;;29.21;27.31
72585;BME280;60618;40.084;32.908;2023-07-24T12:42:41;89337.00;;;29.51;27.40
72585;BME280;60618;40.084;32.908;2023-07-24T12:45:08;89343.69;;;29.94;27.72
72585;BME280;60618;40.084;32.908;2023-07-24T12:47:36;89347.41;;;29.76;27.65
72585;BME280;60618;40.084;32.908;2023-07-24T12:50:03;89343.84;;;29.17;28.78
72585;BME280;60618;40.084;32.908;2023-07-24T12:52:33;89338.22;;;29.03;28.09
72585;BME280;60618;40.084;32.908;2023-07-24T12:55:00;89334.63;;;29.00;28.61
72585;BME280;60618;40.084;32.908;2023-07-24T12:57:29;89338.25;;;29.15;28.71
72585;BME280;60618;40.084;32.908;2023-07-24T12:59:56;89334.22;;;29.39;30.87